sensor_id;sensor_type;location;lat;lon;timestamp;pressure;altitude;pressure_sealevel;temperature;humidity
18795;BME280;29610;49.022;12.114;2023-01-30T00:01:34;98265.19;;;1.09;100.00
18795;BME280;29610;49.022;12.114;2023-01-30T00:04:03;98267.63;;;1.11;100.00
18795;BME280;29610;49.022;12.114;2023-01-30T00:06:32;98272.50;;;0.97;100.00
18795;BME280;29610;49.022;12.114;2023-01-30T00:09:02;98268.63;;;1.05;100.00
18795;BME280;29610;49.022;12.114;2023-01-30T00:11:31;98259.53;;;1.06;100.00
18795;BME280;29610;49.022;12.114;2023-01-30T00:14:00;98268.16;;;0.91;100.00
18795;BME280;29610;49.022;12.114;2023-01-30T00:16:28;98259.63;;;0.94;100.00
18795;BME280;29610;49.022;12.114;2023-01-30T00:18:57;98259.00;;;0.71;100.00
18795;BME280;29610;49.022;12.114;2023-01-30T00:21:26;98246.53;;;0.76;100.00
18795;BME280;29610;49.022;12.114;2023-01-30T00:23:54;98251.09;;;0.97;100.00
18795;BME280;29610;49.022;12.114;2023-01-30T00:26:24;98245.91;;;1.07;100.00
18795;BME280;29610;49.022;12.114;2023-01-30T00:28:53;98247.91;;;1.17;100.00
18795;BME280;29610;49.022;12.114;2023-01-30T00:31:22;98246.22;;;1.11;100.00
18795;BME280;29610;49.022;12.114;2023-01-30T00:33:50;98241.59;;;1.06;100.00
18795;BME280;29610;49.022;12.114;2023-01-30T00:36:22;98247.09;;;1.16;100.00
18795;BME280;29610;49.022;12.114;2023-01-30T00:38:51;98235.75;;;1.09;100.00
18795;BME280;29610;49.022;12.114;2023-01-30T00:41:20;98221.13;;;1.17;100.00
18795;BME280;29610;49.022;12.114;2023-01-30T00:43:50;98223.47;;;1.13;100.00
18795;BME280;29610;49.022;12.114;2023-01-30T00:46:39;98222.56;;;1.03;100.00
18795;BME280;29610;49.022;12.114;2023-01-30T00:49:40;98217.69;;;1.00;100.00
18795;BME280;29610;49.022;12.114;2023-01-30T00:52:09;98205.84;;;0.96;100.00
18795;BME280;29610;49.022;12.114;2023-01-30T00:54:39;98207.63;;;1.07;100.00
18795;BME280;29610;49.022;12.114;2023-01-30T00:57:07;98210.06;;;1.08;100.00
18795;BME280;29610;49.022;12.114;2023-01-30T00:59:37;98207.31;;;1.03;100.00
18795;BME280;29610;49.022;12.114;2023-01-30T01:02:06;98205.69;;;1.02;100.00
18795;BME280;29610;49.022;12.114;2023-01-30T01:04:35;98192.78;;;0.99;100.00
18795;BME280;29610;49.022;12.114;2023-01-30T01:07:12;98192.94;;;1.09;100.00
18795;BME280;29610;49.022;12.114;2023-01-30T01:09:41;98189.78;;;0.96;100.00
18795;BME280;29610;49.022;12.114;2023-01-30T01:12:10;98189.31;;;0.99;100.00
18795;BME280;29610;49.022;12.114;2023-01-30T01:14:40;98184.59;;;1.06;100.00
18795;BME280;29610;49.022;12.114;2023-01-30T01:17:09;98170.34;;;1.00;100.00
18795;BME280;29610;49.022;12.114;2023-01-30T01:19:38;98167.47;;;1.07;100.00
18795;BME280;29610;49.022;12.114;2023-01-30T01:22:06;98178.72;;;1.09;100.00
18795;BME280;29610;49.022;12.114;2023-01-30T01:24:35;98177.72;;;1.15;100.00
18795;BME280;29610;49.022;12.114;2023-01-30T01:27:04;98175.88;;;1.15;100.00
18795;BME280;29610;49.022;12.114;2023-01-30T01:29:32;98178.22;;;1.12;100.00
18795;BME280;29610;49.022;12.114;2023-01-30T01:32:03;98184.91;;;1.09;100.00
18795;BME280;29610;49.022;12.114;2023-01-30T01:34:32;98181.97;;;1.11;100.00
18795;BME280;29610;49.022;12.114;2023-01-30T01:37:01;98180.91;;;1.12;100.00
18795;BME280;29610;49.022;12.114;2023-01-30T01:39:29;98192.38;;;1.07;100.00
18795;BME280;29610;49.022;12.114;2023-01-30T01:42:12;98188.50;;;0.98;100.00
18795;BME280;29610;49.022;12.114;2023-01-30T01:45:13;98203.00;;;1.02;100.00
18795;BME280;29610;49.022;12.114;2023-01-30T01:47:58;98203.91;;;0.91;100.00
18795;BME280;29610;49.022;12.114;2023-01-30T01:50:37;98204.63;;;1.03;100.00
18795;BME280;29610;49.022;12.114;2023-01-30T01:53:09;98221.63;;;0.92;100.00
18795;BME280;29610;49.022;12.114;2023-01-30T01:55:43;98231.25;;;0.93;100.00
18795;BME280;29610;49.022;12.114;2023-01-30T01:58:17;98234.94;;;1.09;100.00
18795;BME280;29610;49.022;12.114;2023-01-30T02:00:50;98228.66;;;0.98;100.00
18795;BME280;29610;49.022;12.114;2023-01-30T02:03:25;98222.06;;;1.06;100.00
18795;BME280;29610;49.022;12.114;2023-01-30T02:06:00;98211.53;;;0.99;100.00
18795;BME280;29610;49.022;12.114;2023-01-30T02:08:35;98220.28;;;1.11;100.00
18795;BME280;29610;49.022;12.114;2023-01-30T02:11:10;98209.13;;;1.19;100.00
18795;BME280;29610;49.022;12.114;2023-01-30T02:13:40;98197.78;;;1.12;100.00
18795;BME280;29610;49.022;12.114;2023-01-30T02:16:09;98201.88;;;0.98;100.00
18795;BME280;29610;49.022;12.114;2023-01-30T02:18:41;98195.28;;;1.06;100.00
18795;BME280;29610;49.022;12.114;2023-01-30T02:21:53;98205.00;;;0.90;100.00
18795;BME280;29610;49.022;12.114;2023-01-30T02:25:02;98205.81;;;0.91;100.00
18795;BME280;29610;49.022;12.114;2023-01-30T02:28:22;98193.22;;;0.91;100.00
18795;BME280;29610;49.022;12.114;2023-01-30T02:31:26;98188.28;;;0.83;100.00
18795;BME280;29610;49.022;12.114;2023-01-30T02:34:13;98177.72;;;0.93;100.00
18795;BME280;29610;49.022;12.114;2023-01-30T02:37:00;98178.56;;;0.94;100.00
18795;BME280;29610;49.022;12.114;2023-01-30T02:39:42;98176.56;;;0.84;100.00
18795;BME280;29610;49.022;12.114;2023-01-30T02:42:23;98164.09;;;0.95;100.00
18795;BME280;29610;49.022;12.114;2023-01-30T02:45:07;98162.47;;;0.72;100.00
18795;BME280;29610;49.022;12.114;2023-01-30T02:47:44;98150.41;;;0.70;100.00
18795;BME280;29610;49.022;12.114;2023-01-30T02:50:21;98139.88;;;0.85;100.00
18795;BME280;29610;49.022;12.114;2023-01-30T02:52:54;98142.06;;;0.88;100.00
18795;BME280;29610;49.022;12.114;2023-01-30T02:55:27;98139.03;;;0.79;100.00
18795;BME280;29610;49.022;12.114;2023-01-30T02:57:57;98155.25;;;0.94;100.00
18795;BME280;29610;49.022;12.114;2023-01-30T03:00:52;98142.63;;;0.90;100.00
18795;BME280;29610;49.022;12.114;2023-01-30T03:07:04;98137.66;;;0.98;100.00
18795;BME280;29610;49.022;12.114;2023-01-30T03:09:47;98132.91;;;1.05;100.00
18795;BME280;29610;49.022;12.114;2023-01-30T03:12:34;98123.22;;;0.78;100.00
18795;BME280;29610;49.022;12.114;2023-01-30T03:15:12;98123.22;;;0.99;100.00
18795;BME280;29610;49.022;12.114;2023-01-30T03:17:46;98110.59;;;0.95;100.00
18795;BME280;29610;49.022;12.114;2023-01-30T03:20:19;98100.88;;;0.89;100.00
18795;BME280;29610;49.022;12.114;2023-01-30T03:22:48;98075.03;;;0.99;100.00
18795;BME280;29610;49.022;12.114;2023-01-30T03:25:21;98081.03;;;1.06;100.00
18795;BME280;29610;49.022;12.114;2023-01-30T03:27:54;98062.88;;;1.13;100.00
18795;BME280;29610;49.022;12.114;2023-01-30T03:30:25;98028.44;;;0.95;100.00
18795;BME280;29610;49.022;12.114;2023-01-30T03:33:02;98035.44;;;0.75;100.00
18795;BME280;29610;49.022;12.114;2023-01-30T03:35:33;98055.59;;;0.61;100.00
18795;BME280;29610;49.022;12.114;2023-01-30T03:38:02;98101.28;;;0.59;100.00
18795;BME280;29610;49.022;12.114;2023-01-30T03:40:34;98097.09;;;0.63;100.00
18795;BME280;29610;49.022;12.114;2023-01-30T03:43:03;98102.84;;;0.77;100.00
18795;BME280;29610;49.022;12.114;2023-01-30T03:45:33;98104.13;;;0.91;100.00
18795;BME280;29610;49.022;12.114;2023-01-30T03:48:02;98104.84;;;0.86;100.00
18795;BME280;29610;49.022;12.114;2023-01-30T03:50:33;98123.09;;;0.89;100.00
18795;BME280;29610;49.022;12.114;2023-01-30T03:53:02;98106.00;;;0.90;100.00
18795;BME280;29610;49.022;12.114;2023-01-30T03:55:30;98086.09;;;0.81;100.00
18795;BME280;29610;49.022;12.114;2023-01-30T03:57:59;98095.66;;;0.99;100.00
18795;BME280;29610;49.022;12.114;2023-01-30T04:00:31;98050.66;;;0.96;100.00
18795;BME280;29610;49.022;12.114;2023-01-30T04:03:01;98046.66;;;0.98;100.00
18795;BME280;29610;49.022;12.114;2023-01-30T04:05:32;98046.00;;;0.86;100.00
18795;BME280;29610;49.022;12.114;2023-01-30T04:08:05;98033.59;;;1.02;100.00
18795;BME280;29610;49.022;12.114;2023-01-30T04:10:34;98008.44;;;1.03;100.00
18795;BME280;29610;49.022;12.114;2023-01-30T04:13:03;98011.56;;;0.95;100.00
18795;BME280;29610;49.022;12.114;2023-01-30T04:15:33;98014.69;;;0.87;100.00
18795;BME280;29610;49.022;12.114;2023-01-30T04:18:21;98004.13;;;0.97;100.00
18795;BME280;29610;49.022;12.114;2023-01-30T04:21:00;98006.66;;;0.87;100.00
18795;BME280;29610;49.022;12.114;2023-01-30T04:23:34;98012.69;;;0.99;100.00
18795;BME280;29610;49.022;12.114;2023-01-30T04:26:04;98017.56;;;0.80;100.00
18795;BME280;29610;49.022;12.114;2023-01-30T04:28:36;98011.78;;;0.88;100.00
18795;BME280;29610;49.022;12.114;2023-01-30T04:31:06;98017.06;;;0.83;100.00
18795;BME280;29610;49.022;12.114;2023-01-30T04:33:38;98010.03;;;0.99;100.00
18795;BME280;29610;49.022;12.114;2023-01-30T04:36:10;98012.97;;;1.02;100.00
18795;BME280;29610;49.022;12.114;2023-01-30T04:38:41;97996.09;;;0.97;100.00
18795;BME280;29610;49.022;12.114;2023-01-30T04:41:09;97989.50;;;1.09;100.00
18795;BME280;29610;49.022;12.114;2023-01-30T04:43:41;97990.16;;;0.95;100.00
18795;BME280;29610;49.022;12.114;2023-01-30T04:46:33;97998.81;;;1.02;100.00
18795;BME280;29610;49.022;12.114;2023-01-30T04:49:01;98001.50;;;1.02;100.00
18795;BME280;29610;49.022;12.114;2023-01-30T04:51:31;97995.56;;;1.00;100.00
18795;BME280;29610;49.022;12.114;2023-01-30T04:54:00;97982.19;;;1.00;100.00
18795;BME280;29610;49.022;12.114;2023-01-30T04:56:30;97992.13;;;1.04;100.00
18795;BME280;29610;49.022;12.114;2023-01-30T04:58:59;97983.13;;;1.15;100.00
18795;BME280;29610;49.022;12.114;2023-01-30T05:01:35;97990.31;;;1.10;100.00
18795;BME280;29610;49.022;12.114;2023-01-30T05:04:06;97981.38;;;0.99;100.00
18795;BME280;29610;49.022;12.114;2023-01-30T05:06:36;97986.69;;;0.94;100.00
18795;BME280;29610;49.022;12.114;2023-01-30T05:09:05;97975.59;;;0.81;100.00
18795;BME280;29610;49.022;12.114;2023-01-30T05:11:34;97977.13;;;0.77;100.00
18795;BME280;29610;49.022;12.114;2023-01-30T05:14:03;97994.13;;;0.87;100.00
18795;BME280;29610;49.022;12.114;2023-01-30T05:16:32;97973.28;;;0.89;100.00
18795;BME280;29610;49.022;12.114;2023-01-30T05:19:00;97979.59;;;0.83;100.00
18795;BME280;29610;49.022;12.114;2023-01-30T05:21:29;97972.34;;;0.79;100.00
18795;BME280;29610;49.022;12.114;2023-01-30T05:23:59;97982.78;;;0.80;100.00
18795;BME280;29610;49.022;12.114;2023-01-30T05:26:28;97987.09;;;0.81;100.00
18795;BME280;29610;49.022;12.114;2023-01-30T05:28:57;97995.22;;;0.91;100.00
18795;BME280;29610;49.022;12.114;2023-01-30T05:31:25;97985.31;;;0.92;100.00
18795;BME280;29610;49.022;12.114;2023-01-30T05:33:54;97988.56;;;0.94;100.00
18795;BME280;29610;49.022;12.114;2023-01-30T05:36:23;97989.41;;;0.99;100.00
18795;BME280;29610;49.022;12.114;2023-01-30T05:38:52;97994.03;;;1.09;100.00
18795;BME280;29610;49.022;12.114;2023-01-30T05:41:22;97996.25;;;1.17;100.00
18795;BME280;29610;49.022;12.114;2023-01-30T05:43:51;98003.53;;;1.21;100.00
18795;BME280;29610;49.022;12.114;2023-01-30T05:46:19;98004.03;;;1.18;100.00
18795;BME280;29610;49.022;12.114;2023-01-30T05:48:48;97996.72;;;1.09;100.00
18795;BME280;29610;49.022;12.114;2023-01-30T05:51:20;97995.38;;;1.06;100.00
18795;BME280;29610;49.022;12.114;2023-01-30T05:53:49;97985.06;;;0.93;100.00
18795;BME280;29610;49.022;12.114;2023-01-30T05:56:19;97982.09;;;0.90;100.00
18795;BME280;29610;49.022;12.114;2023-01-30T05:58:54;97980.25;;;0.69;100.00
18795;BME280;29610;49.022;12.114;2023-01-30T06:01:25;97980.00;;;0.70;100.00
18795;BME280;29610;49.022;12.114;2023-01-30T06:03:54;97966.94;;;0.74;100.00
18795;BME280;29610;49.022;12.114;2023-01-30T06:06:24;97959.97;;;0.73;100.00
18795;BME280;29610;49.022;12.114;2023-01-30T06:08:54;97961.59;;;0.74;100.00
18795;BME280;29610;49.022;12.114;2023-01-30T06:11:23;97958.00;;;0.90;100.00
18795;BME280;29610;49.022;12.114;2023-01-30T06:13:54;97949.13;;;0.84;100.00
18795;BME280;29610;49.022;12.114;2023-01-30T06:16:22;97959.78;;;0.79;100.00
18795;BME280;29610;49.022;12.114;2023-01-30T06:18:51;97962.31;;;0.91;100.00
18795;BME280;29610;49.022;12.114;2023-01-30T06:21:20;97949.13;;;0.84;100.00
18795;BME280;29610;49.022;12.114;2023-01-30T06:23:49;97953.00;;;0.98;100.00
18795;BME280;29610;49.022;12.114;2023-01-30T06:26:17;97942.63;;;1.02;100.00
18795;BME280;29610;49.022;12.114;2023-01-30T06:28:46;97941.50;;;0.98;100.00
18795;BME280;29610;49.022;12.114;2023-01-30T06:31:17;97929.75;;;1.04;100.00
18795;BME280;29610;49.022;12.114;2023-01-30T06:33:46;97942.00;;;0.95;100.00
18795;BME280;29610;49.022;12.114;2023-01-30T06:36:15;97946.59;;;0.99;100.00
18795;BME280;29610;49.022;12.114;2023-01-30T06:38:44;97935.09;;;0.99;100.00
18795;BME280;29610;49.022;12.114;2023-01-30T06:41:13;97941.03;;;1.06;100.00
18795;BME280;29610;49.022;12.114;2023-01-30T06:43:42;97939.72;;;1.08;100.00
18795;BME280;29610;49.022;12.114;2023-01-30T06:46:10;97932.94;;;1.01;100.00
18795;BME280;29610;49.022;12.114;2023-01-30T06:48:40;97935.38;;;1.02;100.00
18795;BME280;29610;49.022;12.114;2023-01-30T06:51:09;97938.56;;;0.99;100.00
18795;BME280;29610;49.022;12.114;2023-01-30T06:53:38;97934.84;;;1.05;100.00
18795;BME280;29610;49.022;12.114;2023-01-30T06:56:07;97934.41;;;1.13;100.00
18795;BME280;29610;49.022;12.114;2023-01-30T06:58:35;97934.38;;;1.08;100.00
18795;BME280;29610;49.022;12.114;2023-01-30T07:01:04;97925.63;;;1.23;100.00
18795;BME280;29610;49.022;12.114;2023-01-30T07:03:33;97936.59;;;1.21;100.00
18795;BME280;29610;49.022;12.114;2023-01-30T07:06:03;97929.03;;;1.13;100.00
18795;BME280;29610;49.022;12.114;2023-01-30T07:08:32;97925.28;;;1.09;100.00
18795;BME280;29610;49.022;12.114;2023-01-30T07:11:00;97923.03;;;1.33;100.00
18795;BME280;29610;49.022;12.114;2023-01-30T07:13:31;97926.88;;;1.47;100.00
18795;BME280;29610;49.022;12.114;2023-01-30T07:16:00;97938.16;;;1.49;100.00
18795;BME280;29610;49.022;12.114;2023-01-30T07:18:28;97933.06;;;1.47;100.00
18795;BME280;29610;49.022;12.114;2023-01-30T07:20:57;97926.19;;;1.25;100.00
18795;BME280;29610;49.022;12.114;2023-01-30T07:23:27;97921.25;;;1.07;100.00
18795;BME280;29610;49.022;12.114;2023-01-30T07:25:56;97913.94;;;1.29;100.00
18795;BME280;29610;49.022;12.114;2023-01-30T07:28:25;97914.34;;;1.16;100.00
18795;BME280;29610;49.022;12.114;2023-01-30T07:30:54;97904.56;;;1.31;100.00
18795;BME280;29610;49.022;12.114;2023-01-30T07:33:22;97892.78;;;1.27;100.00
18795;BME280;29610;49.022;12.114;2023-01-30T07:35:51;97887.50;;;1.42;100.00
18795;BME280;29610;49.022;12.114;2023-01-30T07:38:20;97890.22;;;1.47;100.00
18795;BME280;29610;49.022;12.114;2023-01-30T07:40:50;97884.03;;;1.47;100.00
18795;BME280;29610;49.022;12.114;2023-01-30T07:43:19;97887.72;;;1.36;100.00
18795;BME280;29610;49.022;12.114;2023-01-30T07:45:48;97872.34;;;1.63;100.00
18795;BME280;29610;49.022;12.114;2023-01-30T07:48:18;97878.59;;;1.74;100.00
18795;BME280;29610;49.022;12.114;2023-01-30T07:50:47;97898.69;;;1.76;100.00
18795;BME280;29610;49.022;12.114;2023-01-30T07:53:16;97885.56;;;1.75;100.00
18795;BME280;29610;49.022;12.114;2023-01-30T07:55:45;97880.47;;;1.78;100.00
18795;BME280;29610;49.022;12.114;2023-01-30T07:58:15;97878.69;;;1.99;100.00
18795;BME280;29610;49.022;12.114;2023-01-30T08:00:44;97884.38;;;2.12;100.00
18795;BME280;29610;49.022;12.114;2023-01-30T08:03:15;97878.72;;;2.04;100.00
18795;BME280;29610;49.022;12.114;2023-01-30T08:05:45;97881.66;;;1.97;100.00
18795;BME280;29610;49.022;12.114;2023-01-30T08:08:14;97880.03;;;1.96;100.00
18795;BME280;29610;49.022;12.114;2023-01-30T08:10:43;97878.25;;;2.17;100.00
18795;BME280;29610;49.022;12.114;2023-01-30T08:13:12;97884.22;;;2.44;100.00
18795;BME280;29610;49.022;12.114;2023-01-30T08:15:43;97884.19;;;2.34;100.00
18795;BME280;29610;49.022;12.114;2023-01-30T08:18:12;97890.59;;;2.23;100.00
18795;BME280;29610;49.022;12.114;2023-01-30T08:20:40;97898.72;;;2.48;100.00
18795;BME280;29610;49.022;12.114;2023-01-30T08:23:11;97898.16;;;2.46;100.00
18795;BME280;29610;49.022;12.114;2023-01-30T08:25:39;97895.22;;;2.47;100.00
18795;BME280;29610;49.022;12.114;2023-01-30T08:28:08;97897.44;;;2.75;100.00
18795;BME280;29610;49.022;12.114;2023-01-30T08:30:37;97881.88;;;2.92;100.00
18795;BME280;29610;49.022;12.114;2023-01-30T08:33:07;97864.97;;;2.87;100.00
18795;BME280;29610;49.022;12.114;2023-01-30T08:35:35;97878.94;;;3.04;100.00
18795;BME280;29610;49.022;12.114;2023-01-30T08:38:05;97862.00;;;3.19;100.00
18795;BME280;29610;49.022;12.114;2023-01-30T08:40:35;97867.66;;;3.22;100.00
18795;BME280;29610;49.022;12.114;2023-01-30T08:43:05;97865.50;;;3.04;100.00
18795;BME280;29610;49.022;12.114;2023-01-30T08:45:34;97872.72;;;3.34;100.00
18795;BME280;29610;49.022;12.114;2023-01-30T08:48:05;97853.91;;;3.54;100.00
18795;BME280;29610;49.022;12.114;2023-01-30T08:50:35;97850.97;;;3.35;100.00
18795;BME280;29610;49.022;12.114;2023-01-30T08:53:06;97860.66;;;3.41;100.00
18795;BME280;29610;49.022;12.114;2023-01-30T08:55:35;97848.81;;;3.52;100.00
18795;BME280;29610;49.022;12.114;2023-01-30T08:58:04;97840.75;;;3.47;100.00
18795;BME280;29610;49.022;12.114;2023-01-30T09:00:34;97826.50;;;3.52;100.00
18795;BME280;29610;49.022;12.114;2023-01-30T09:03:02;97831.22;;;3.85;100.00
18795;BME280;29610;49.022;12.114;2023-01-30T09:05:32;97827.22;;;3.82;100.00
18795;BME280;29610;49.022;12.114;2023-01-30T09:08:02;97814.25;;;3.94;100.00
18795;BME280;29610;49.022;12.114;2023-01-30T09:10:33;97823.97;;;3.80;100.00
18795;BME280;29610;49.022;12.114;2023-01-30T09:13:38;97807.25;;;3.98;100.00
18795;BME280;29610;49.022;12.114;2023-01-30T09:16:21;97802.63;;;4.09;100.00
18795;BME280;29610;49.022;12.114;2023-01-30T09:18:57;97794.34;;;4.44;100.00
18795;BME280;29610;49.022;12.114;2023-01-30T09:21:27;97796.94;;;4.59;100.00
18795;BME280;29610;49.022;12.114;2023-01-30T09:23:59;97778.94;;;4.55;100.00
18795;BME280;29610;49.022;12.114;2023-01-30T09:26:30;97781.03;;;4.63;100.00
18795;BME280;29610;49.022;12.114;2023-01-30T09:29:02;97777.13;;;4.45;100.00
18795;BME280;29610;49.022;12.114;2023-01-30T09:31:31;97769.59;;;4.42;100.00
18795;BME280;29610;49.022;12.114;2023-01-30T09:34:00;97776.22;;;4.21;100.00
18795;BME280;29610;49.022;12.114;2023-01-30T09:36:29;97784.97;;;4.36;100.00
18795;BME280;29610;49.022;12.114;2023-01-30T09:39:00;97774.22;;;4.36;100.00
18795;BME280;29610;49.022;12.114;2023-01-30T09:41:52;97772.53;;;4.45;100.00
18795;BME280;29610;49.022;12.114;2023-01-30T09:45:15;97774.44;;;4.45;100.00
18795;BME280;29610;49.022;12.114;2023-01-30T09:47:59;97768.09;;;4.26;100.00
18795;BME280;29610;49.022;12.114;2023-01-30T09:50:54;97763.41;;;4.03;100.00
18795;BME280;29610;49.022;12.114;2023-01-30T09:53:39;97768.69;;;4.18;100.00
18795;BME280;29610;49.022;12.114;2023-01-30T09:56:15;97761.00;;;3.96;100.00
18795;BME280;29610;49.022;12.114;2023-01-30T09:58:50;97755.84;;;4.05;100.00
18795;BME280;29610;49.022;12.114;2023-01-30T10:01:33;97758.19;;;3.63;100.00
18795;BME280;29610;49.022;12.114;2023-01-30T10:04:15;97759.41;;;3.32;100.00
18795;BME280;29610;49.022;12.114;2023-01-30T10:06:58;97766.03;;;3.54;100.00
18795;BME280;29610;49.022;12.114;2023-01-30T10:09:43;97760.31;;;3.71;100.00
18795;BME280;29610;49.022;12.114;2023-01-30T10:12:42;97744.00;;;3.57;100.00
18795;BME280;29610;49.022;12.114;2023-01-30T10:15:33;97744.22;;;3.61;100.00
18795;BME280;29610;49.022;12.114;2023-01-30T10:21:43;97739.78;;;3.90;100.00
18795;BME280;29610;49.022;12.114;2023-01-30T10:24:37;97746.72;;;3.47;100.00
18795;BME280;29610;49.022;12.114;2023-01-30T10:27:16;97734.13;;;3.33;100.00
18795;BME280;29610;49.022;12.114;2023-01-30T10:29:51;97736.38;;;3.74;100.00
18795;BME280;29610;49.022;12.114;2023-01-30T10:32:34;97735.41;;;3.50;100.00
18795;BME280;29610;49.022;12.114;2023-01-30T10:35:16;97746.31;;;3.74;100.00
18795;BME280;29610;49.022;12.114;2023-01-30T10:37:55;97741.78;;;3.69;100.00
18795;BME280;29610;49.022;12.114;2023-01-30T10:40:40;97735.53;;;3.84;100.00
18795;BME280;29610;49.022;12.114;2023-01-30T10:43:23;97730.34;;;3.97;100.00
18795;BME280;29610;49.022;12.114;2023-01-30T10:46:20;97725.13;;;4.16;100.00
18795;BME280;29610;49.022;12.114;2023-01-30T10:49:02;97707.78;;;3.93;100.00
18795;BME280;29610;49.022;12.114;2023-01-30T10:51:59;97706.91;;;4.41;100.00
18795;BME280;29610;49.022;12.114;2023-01-30T10:54:41;97713.03;;;4.47;100.00
18795;BME280;29610;49.022;12.114;2023-01-30T10:57:26;97705.88;;;4.66;100.00
18795;BME280;29610;49.022;12.114;2023-01-30T11:00:24;97707.31;;;4.59;100.00
18795;BME280;29610;49.022;12.114;2023-01-30T11:03:14;97712.53;;;4.11;100.00
18795;BME280;29610;49.022;12.114;2023-01-30T11:05:49;97711.16;;;4.14;100.00
18795;BME280;29610;49.022;12.114;2023-01-30T11:08:24;97691.06;;;4.01;100.00
18795;BME280;29610;49.022;12.114;2023-01-30T11:10:57;97693.84;;;3.86;100.00
18795;BME280;29610;49.022;12.114;2023-01-30T11:13:32;97686.53;;;3.97;100.00
18795;BME280;29610;49.022;12.114;2023-01-30T11:16:10;97686.56;;;3.92;100.00
18795;BME280;29610;49.022;12.114;2023-01-30T11:18:50;97698.03;;;3.64;100.00
18795;BME280;29610;49.022;12.114;2023-01-30T11:21:39;97705.03;;;3.55;100.00
18795;BME280;29610;49.022;12.114;2023-01-30T11:24:15;97706.25;;;3.24;100.00
18795;BME280;29610;49.022;12.114;2023-01-30T11:26:46;97701.94;;;3.18;100.00
18795;BME280;29610;49.022;12.114;2023-01-30T11:29:27;97689.38;;;3.08;100.00
18795;BME280;29610;49.022;12.114;2023-01-30T11:32:02;97684.69;;;3.39;100.00
18795;BME280;29610;49.022;12.114;2023-01-30T11:34:33;97676.31;;;3.50;100.00
18795;BME280;29610;49.022;12.114;2023-01-30T11:37:22;97671.41;;;3.62;100.00
18795;BME280;29610;49.022;12.114;2023-01-30T11:39:59;97661.84;;;3.41;100.00
18795;BME280;29610;49.022;12.114;2023-01-30T11:42:44;97662.31;;;3.53;100.00
18795;BME280;29610;49.022;12.114;2023-01-30T11:45:16;97677.34;;;3.59;100.00
18795;BME280;29610;49.022;12.114;2023-01-30T11:47:50;97666.38;;;3.51;100.00
18795;BME280;29610;49.022;12.114;2023-01-30T11:50:37;97677.97;;;3.46;100.00
18795;BME280;29610;49.022;12.114;2023-01-30T11:53:32;97680.09;;;3.44;100.00
18795;BME280;29610;49.022;12.114;2023-01-30T11:56:08;97674.81;;;3.24;100.00
18795;BME280;29610;49.022;12.114;2023-01-30T11:58:41;97665.72;;;3.15;100.00
18795;BME280;29610;49.022;12.114;2023-01-30T12:01:13;97665.69;;;3.25;100.00
18795;BME280;29610;49.022;12.114;2023-01-30T12:03:49;97664.59;;;3.31;100.00
18795;BME280;29610;49.022;12.114;2023-01-30T12:06:31;97658.91;;;3.38;100.00
18795;BME280;29610;49.022;12.114;2023-01-30T12:09:04;97665.44;;;3.22;100.00
18795;BME280;29610;49.022;12.114;2023-01-30T12:11:42;97648.00;;;3.14;100.00
18795;BME280;29610;49.022;12.114;2023-01-30T12:14:29;97657.69;;;3.10;100.00
18795;BME280;29610;49.022;12.114;2023-01-30T12:17:10;97654.97;;;3.15;100.00
18795;BME280;29610;49.022;12.114;2023-01-30T12:20:00;97647.16;;;3.29;100.00
18795;BME280;29610;49.022;12.114;2023-01-30T12:22:40;97641.22;;;3.32;100.00
18795;BME280;29610;49.022;12.114;2023-01-30T12:25:18;97655.44;;;3.27;100.00
18795;BME280;29610;49.022;12.114;2023-01-30T12:27:58;97651.16;;;3.31;100.00
18795;BME280;29610;49.022;12.114;2023-01-30T12:30:35;97646.63;;;3.27;100.00
18795;BME280;29610;49.022;12.114;2023-01-30T12:33:12;97649.75;;;3.44;100.00
18795;BME280;29610;49.022;12.114;2023-01-30T12:35:55;97643.66;;;3.23;100.00
18795;BME280;29610;49.022;12.114;2023-01-30T12:38:49;97632.78;;;3.48;100.00
18795;BME280;29610;49.022;12.114;2023-01-30T12:41:43;97632.31;;;3.41;100.00
18795;BME280;29610;49.022;12.114;2023-01-30T12:44:38;97635.28;;;3.40;100.00
18795;BME280;29610;49.022;12.114;2023-01-30T12:47:43;97639.56;;;3.36;100.00
18795;BME280;29610;49.022;12.114;2023-01-30T12:50:33;97642.75;;;3.48;100.00
18795;BME280;29610;49.022;12.114;2023-01-30T12:53:32;97644.19;;;3.25;100.00
18795;BME280;29610;49.022;12.114;2023-01-30T12:56:44;97654.94;;;3.30;100.00
18795;BME280;29610;49.022;12.114;2023-01-30T12:59:23;97659.38;;;3.50;100.00
18795;BME280;29610;49.022;12.114;2023-01-30T13:02:26;97667.03;;;3.18;100.00
18795;BME280;29610;49.022;12.114;2023-01-30T13:05:21;97670.56;;;3.13;100.00
18795;BME280;29610;49.022;12.114;2023-01-30T13:08:07;97661.75;;;2.92;100.00
18795;BME280;29610;49.022;12.114;2023-01-30T13:10:48;97666.03;;;3.03;100.00
18795;BME280;29610;49.022;12.114;2023-01-30T13:13:29;97670.56;;;3.08;100.00
18795;BME280;29610;49.022;12.114;2023-01-30T13:16:11;97675.72;;;2.99;100.00
18795;BME280;29610;49.022;12.114;2023-01-30T13:18:54;97678.94;;;3.02;100.00
18795;BME280;29610;49.022;12.114;2023-01-30T13:21:32;97680.25;;;3.09;100.00
18795;BME280;29610;49.022;12.114;2023-01-30T13:24:18;97690.16;;;3.09;100.00
18795;BME280;29610;49.022;12.114;2023-01-30T13:26:53;97682.91;;;3.14;100.00
18795;BME280;29610;49.022;12.114;2023-01-30T13:29:31;97687.22;;;3.10;100.00
18795;BME280;29610;49.022;12.114;2023-01-30T13:32:11;97689.41;;;2.93;100.00
18795;BME280;29610;49.022;12.114;2023-01-30T13:34:45;97695.81;;;3.02;100.00
18795;BME280;29610;49.022;12.114;2023-01-30T13:37:18;97694.78;;;2.98;100.00
18795;BME280;29610;49.022;12.114;2023-01-30T13:44:29;97656.56;;;3.21;100.00